NCAR-RAP Real-Time Weather Data

Output produced by METARs form (24 July 2017  08:53 UTC)
found at http://weather.rap.ucar.edu/surface/
 
Conditions at: KINF observed 24 July 2017  08:35 UTC
Temperature: 23.0°C (73°F)
Dewpoint: 23.0°C (73°F) [RH = 100%]
Pressure (altimeter): 30.01 inches Hg (1016.3 mb)
Winds: calm
Visibility: 7 miles (11 km)
Ceiling: at least 12,000 feet AGL
Clouds: sky clear below 12,000 feet AGL
Present Weather: automated observation with no human augmentation;
there may or may not be significant weather present at this time
KINF 240835Z AUTO 00000KT 7SM CLR 23/23 A3001 RMK AO2 LTG DSNT W

Conditions at: KINF observed 24 July 2017  08:15 UTC
Temperature: 23.0°C (73°F)
Dewpoint: 23.0°C (73°F) [RH = 100%]
Pressure (altimeter): 30.01 inches Hg (1016.3 mb)
Winds: calm
Visibility: 5 miles (8 km)
Ceiling: at least 12,000 feet AGL
Clouds: sky clear below 12,000 feet AGL
Present Weather: BR  (mist)
KINF 240815Z AUTO 00000KT 5SM BR CLR 23/23 A3001 RMK AO2

Conditions at: KINF observed 24 July 2017  07:55 UTC
Temperature: 23.0°C (73°F)
Dewpoint: 23.0°C (73°F) [RH = 100%]
Pressure (altimeter): 30.01 inches Hg (1016.3 mb)
Winds: calm
Visibility: 5 miles (8 km)
Ceiling: at least 12,000 feet AGL
Clouds: sky clear below 12,000 feet AGL
Present Weather: BR  (mist)
KINF 240755Z AUTO 00000KT 5SM BR CLR 23/23 A3001 RMK AO2 LTG DSNT W

Conditions at: KINF observed 24 July 2017  07:35 UTC
Temperature: 23.0°C (73°F)
Dewpoint: 23.0°C (73°F) [RH = 100%]
Pressure (altimeter): 30.01 inches Hg (1016.3 mb)
Winds: calm
Visibility: 5 miles (8 km)
Ceiling: at least 12,000 feet AGL
Clouds: sky clear below 12,000 feet AGL
Present Weather: BR  (mist)
KINF 240735Z AUTO 00000KT 5SM BR CLR 23/23 A3001 RMK AO2 LTG DSNT W

Conditions at: KINF observed 24 July 2017  07:15 UTC
Temperature: 23.0°C (73°F)
Dewpoint: 23.0°C (73°F) [RH = 100%]
Pressure (altimeter): 30.01 inches Hg (1016.3 mb)
Winds: calm
Visibility: 5 miles (8 km)
Ceiling: at least 12,000 feet AGL
Clouds: sky clear below 12,000 feet AGL
Present Weather: BR  (mist)
KINF 240715Z AUTO 00000KT 5SM BR CLR 23/23 A3001 RMK AO2 LTG DSNT SW AND W

Conditions at: KINF observed 24 July 2017  06:55 UTC
Temperature: 23.0°C (73°F)
Dewpoint: 23.0°C (73°F) [RH = 100%]
Pressure (altimeter): 30.03 inches Hg (1017.0 mb)
Winds: calm
Visibility: 5 miles (8 km)
Ceiling: at least 12,000 feet AGL
Clouds: sky clear below 12,000 feet AGL
Present Weather: VCTS BR  (thunderstorm in vicinity, mist)
KINF 240655Z AUTO 00000KT 5SM VCTS BR CLR 23/23 A3003 RMK AO2 LTG DSNT SW AND W

Conditions at: KINF observed 24 July 2017  06:35 UTC
Temperature: 23.0°C (73°F)
Dewpoint: 23.0°C (73°F) [RH = 100%]
Pressure (altimeter): 30.03 inches Hg (1017.0 mb)
Winds: calm
Visibility: 7 miles (11 km)
Ceiling: at least 12,000 feet AGL
Clouds: sky clear below 12,000 feet AGL
Present Weather: automated observation with no human augmentation;
there may or may not be significant weather present at this time
KINF 240635Z AUTO 00000KT 7SM CLR 23/23 A3003 RMK AO2 LTG DSNT W

Conditions at: KINF observed 24 July 2017  06:15 UTC
Temperature: 23.0°C (73°F)
Dewpoint: 23.0°C (73°F) [RH = 100%]
Pressure (altimeter): 30.03 inches Hg (1017.0 mb)
Winds: calm
Visibility: 7 miles (11 km)
Ceiling: at least 12,000 feet AGL
Clouds: sky clear below 12,000 feet AGL
Present Weather: automated observation with no human augmentation;
there may or may not be significant weather present at this time
KINF 240615Z AUTO 00000KT 7SM CLR 23/23 A3003 RMK AO2 LTG DSNT NW

Conditions at: KINF observed 24 July 2017  05:55 UTC
Temperature: 23.0°C (73°F)
Dewpoint: 23.0°C (73°F) [RH = 100%]
Pressure (altimeter): 30.03 inches Hg (1017.0 mb)
Winds: calm
Visibility: 7 miles (11 km)
Ceiling: at least 12,000 feet AGL
Clouds: sky clear below 12,000 feet AGL
Present Weather: automated observation with no human augmentation;
there may or may not be significant weather present at this time
KINF 240555Z AUTO 00000KT 7SM CLR 23/23 A3003 RMK AO2

Conditions at: KINF observed 24 July 2017  05:35 UTC
Temperature: 23.0°C (73°F)
Dewpoint: 23.0°C (73°F) [RH = 100%]
Pressure (altimeter): 30.03 inches Hg (1017.0 mb)
Winds: calm
Visibility: 7 miles (11 km)
Ceiling: at least 12,000 feet AGL
Clouds: sky clear below 12,000 feet AGL
Present Weather: automated observation with no human augmentation;
there may or may not be significant weather present at this time
KINF 240535Z AUTO 00000KT 7SM CLR 23/23 A3003 RMK AO2

Conditions at: KINF observed 24 July 2017  05:15 UTC
Temperature: 23.0°C (73°F)
Dewpoint: 23.0°C (73°F) [RH = 100%]
Pressure (altimeter): 30.03 inches Hg (1017.0 mb)
Winds: calm
Visibility: 7 miles (11 km)
Ceiling: at least 12,000 feet AGL
Clouds: sky clear below 12,000 feet AGL
Present Weather: automated observation with no human augmentation;
there may or may not be significant weather present at this time
KINF 240515Z AUTO 00000KT 7SM CLR 23/23 A3003 RMK AO2 LTG DSNT NW

Conditions at: KINF observed 24 July 2017  04:55 UTC
Temperature: 23.0°C (73°F)
Dewpoint: 23.0°C (73°F) [RH = 100%]
Pressure (altimeter): 30.04 inches Hg (1017.4 mb)
Winds: calm
Visibility: 7 miles (11 km)
Ceiling: at least 12,000 feet AGL
Clouds: sky clear below 12,000 feet AGL
Present Weather: automated observation with no human augmentation;
there may or may not be significant weather present at this time
KINF 240455Z AUTO 00000KT 7SM CLR 23/23 A3004 RMK AO2 LTG DSNT E

Conditions at: KINF observed 24 July 2017  04:35 UTC
Temperature: 23.0°C (73°F)
Dewpoint: 23.0°C (73°F) [RH = 100%]
Pressure (altimeter): 30.04 inches Hg (1017.4 mb)
Winds: calm
Visibility: 7 miles (11 km)
Ceiling: at least 12,000 feet AGL
Clouds: sky clear below 12,000 feet AGL
Present Weather: automated observation with no human augmentation;
there may or may not be significant weather present at this time
KINF 240435Z AUTO 00000KT 7SM CLR 23/23 A3004 RMK AO2

Conditions at: KINF observed 24 July 2017  04:15 UTC
Temperature: 23.0°C (73°F)
Dewpoint: 23.0°C (73°F) [RH = 100%]
Pressure (altimeter): 30.05 inches Hg (1017.7 mb)
Winds: calm
Visibility: 7 miles (11 km)
Ceiling: at least 12,000 feet AGL
Clouds: sky clear below 12,000 feet AGL
Present Weather: automated observation with no human augmentation;
there may or may not be significant weather present at this time
KINF 240415Z AUTO 00000KT 7SM CLR 23/23 A3005 RMK AO2

Conditions at: KINF observed 24 July 2017  03:55 UTC
Temperature: 23.0°C (73°F)
Dewpoint: 23.0°C (73°F) [RH = 100%]
Pressure (altimeter): 30.04 inches Hg (1017.4 mb)
Winds: calm
Visibility: 7 miles (11 km)
Ceiling: at least 12,000 feet AGL
Clouds: sky clear below 12,000 feet AGL
Present Weather: automated observation with no human augmentation;
there may or may not be significant weather present at this time
KINF 240355Z AUTO 00000KT 7SM CLR 23/23 A3004 RMK AO2

Conditions at: KINF observed 24 July 2017  03:35 UTC
Temperature: 23.0°C (73°F)
Dewpoint: 23.0°C (73°F) [RH = 100%]
Pressure (altimeter): 30.04 inches Hg (1017.4 mb)
Winds: calm
Visibility: 10 or more miles (16+ km)
Ceiling: at least 12,000 feet AGL
Clouds: sky clear below 12,000 feet AGL
Present Weather: automated observation with no human augmentation;
there may or may not be significant weather present at this time
KINF 240335Z AUTO 00000KT 10SM CLR 23/23 A3004 RMK AO2

Conditions at: KINF observed 24 July 2017  03:15 UTC
Temperature: 23.0°C (73°F)
Dewpoint: 23.0°C (73°F) [RH = 100%]
Pressure (altimeter): 30.04 inches Hg (1017.4 mb)
Winds: calm
Visibility: 5 miles (8 km)
Ceiling: at least 12,000 feet AGL
Clouds: sky clear below 12,000 feet AGL
Present Weather: BR  (mist)
KINF 240315Z AUTO 00000KT 5SM BR CLR 23/23 A3004 RMK AO2

Conditions at: KINF observed 24 July 2017  02:55 UTC
Temperature: 23.0°C (73°F)
Dewpoint: 23.0°C (73°F) [RH = 100%]
Pressure (altimeter): 30.03 inches Hg (1017.0 mb)
Winds: calm
Visibility: 1.50 miles (2.41 km)
Ceiling: indefinite ceiling with vertical visibility of 700 feet AGL
Clouds: obscured sky
Present Weather: BR  (mist)
KINF 240255Z AUTO 00000KT 1 1/2SM BR VV007 23/23 A3003 RMK AO2

Conditions at: KINF observed 24 July 2017  02:35 UTC
Temperature: 23.0°C (73°F)
Dewpoint: 23.0°C (73°F) [RH = 100%]
Pressure (altimeter): 30.03 inches Hg (1017.0 mb)
Winds: calm
Visibility: 3 miles (5 km)
Ceiling: at least 12,000 feet AGL
Clouds: sky clear below 12,000 feet AGL
Present Weather: BR  (mist)
KINF 240235Z AUTO 00000KT 3SM BR CLR 23/23 A3003 RMK AO2

Conditions at: KINF observed 24 July 2017  02:15 UTC
Temperature: 23.0°C (73°F)
Dewpoint: 23.0°C (73°F) [RH = 100%]
Pressure (altimeter): 30.02 inches Hg (1016.7 mb)
Winds: calm
Visibility: 7 miles (11 km)
Ceiling: at least 12,000 feet AGL
Clouds: sky clear below 12,000 feet AGL
Present Weather: automated observation with no human augmentation;
there may or may not be significant weather present at this time
KINF 240215Z AUTO 00000KT 7SM CLR 23/23 A3002 RMK AO2

Conditions at: KINF observed 24 July 2017  01:55 UTC
Temperature: 23.0°C (73°F)
Dewpoint: 23.0°C (73°F) [RH = 100%]
Pressure (altimeter): 30.01 inches Hg (1016.3 mb)
Winds: calm
Visibility: 7 miles (11 km)
Ceiling: at least 12,000 feet AGL
Clouds: sky clear below 12,000 feet AGL
Present Weather: automated observation with no human augmentation;
there may or may not be significant weather present at this time
KINF 240155Z AUTO 00000KT 7SM CLR 23/23 A3001 RMK AO2

Conditions at: KINF observed 24 July 2017  01:35 UTC
Temperature: 23.0°C (73°F)
Dewpoint: 23.0°C (73°F) [RH = 100%]
Pressure (altimeter): 30.01 inches Hg (1016.3 mb)
Winds: calm
Visibility: 7 miles (11 km)
Ceiling: at least 12,000 feet AGL
Clouds: sky clear below 12,000 feet AGL
Present Weather: automated observation with no human augmentation;
there may or may not be significant weather present at this time
KINF 240135Z AUTO 00000KT 7SM CLR 23/23 A3001 RMK AO2

Conditions at: KINF observed 24 July 2017  01:15 UTC
Temperature: 23.0°C (73°F)
Dewpoint: 23.0°C (73°F) [RH = 100%]
Pressure (altimeter): 30.01 inches Hg (1016.3 mb)
Winds: calm
Visibility: 5 miles (8 km)
Ceiling: at least 12,000 feet AGL
Clouds: sky clear below 12,000 feet AGL
Present Weather: BR  (mist)
KINF 240115Z AUTO 00000KT 5SM BR CLR 23/23 A3001 RMK AO2

Conditions at: KINF observed 24 July 2017  00:55 UTC
Temperature: 23.0°C (73°F)
Dewpoint: 23.0°C (73°F) [RH = 100%]
Pressure (altimeter): 30.01 inches Hg (1016.3 mb)
Winds: calm
Visibility: 7 miles (11 km)
Ceiling: at least 12,000 feet AGL
Clouds: sky clear below 12,000 feet AGL
Present Weather: automated observation with no human augmentation;
there may or may not be significant weather present at this time
KINF 240055Z AUTO 00000KT 7SM CLR 23/23 A3001 RMK AO2

Conditions at: KINF observed 24 July 2017  00:35 UTC
Temperature: 24.0°C (75°F)
Dewpoint: 24.0°C (75°F) [RH = 100%]
Pressure (altimeter): 30.01 inches Hg (1016.3 mb)
Winds: calm
Visibility: 7 miles (11 km)
Ceiling: at least 12,000 feet AGL
Clouds: sky clear below 12,000 feet AGL
Present Weather: automated observation with no human augmentation;
there may or may not be significant weather present at this time
KINF 240035Z AUTO 00000KT 7SM CLR 24/24 A3001 RMK AO2

Conditions at: KINF observed 24 July 2017  00:15 UTC
Temperature: 24.0°C (75°F)
Dewpoint: 24.0°C (75°F) [RH = 100%]
Pressure (altimeter): 30.00 inches Hg (1016.0 mb)
Winds: calm
Visibility: 10 or more miles (16+ km)
Ceiling: at least 12,000 feet AGL
Clouds: sky clear below 12,000 feet AGL
Present Weather: automated observation with no human augmentation;
there may or may not be significant weather present at this time
KINF 240015Z AUTO 00000KT 10SM CLR 24/24 A3000 RMK AO2

Conditions at: KINF observed 23 July 2017  23:55 UTC
Temperature: 25.0°C (77°F)
Dewpoint: 25.0°C (77°F) [RH = 100%]
Pressure (altimeter): 30.00 inches Hg (1016.0 mb)
Winds: calm
Visibility: 10 or more miles (16+ km)
Ceiling: at least 12,000 feet AGL
Clouds: sky clear below 12,000 feet AGL
Present Weather: automated observation with no human augmentation;
there may or may not be significant weather present at this time
KINF 232355Z AUTO 00000KT 10SM CLR 25/25 A3000 RMK AO2

Conditions at: KINF observed 23 July 2017  23:35 UTC
Temperature: 25.0°C (77°F)
Dewpoint: 25.0°C (77°F) [RH = 100%]
Pressure (altimeter): 30.00 inches Hg (1016.0 mb)
Winds: calm
Visibility: 10 or more miles (16+ km)
Ceiling: at least 12,000 feet AGL
Clouds: sky clear below 12,000 feet AGL
Present Weather: automated observation with no human augmentation;
there may or may not be significant weather present at this time
KINF 232335Z AUTO 00000KT 10SM CLR 25/25 A3000 RMK AO2

Conditions at: KINF observed 23 July 2017  23:15 UTC
Temperature: 25.0°C (77°F)
Dewpoint: 25.0°C (77°F) [RH = 100%]
Pressure (altimeter): 30.00 inches Hg (1016.0 mb)
Winds: calm
Visibility: 10 or more miles (16+ km)
Ceiling: at least 12,000 feet AGL
Clouds: sky clear below 12,000 feet AGL
Present Weather: automated observation with no human augmentation;
there may or may not be significant weather present at this time
KINF 232315Z AUTO 00000KT 10SM CLR 25/25 A3000 RMK AO2

Conditions at: KINF observed 23 July 2017  22:55 UTC
Temperature: 25.0°C (77°F)
Dewpoint: 25.0°C (77°F) [RH = 100%]
Pressure (altimeter): 29.98 inches Hg (1015.3 mb)
Winds: calm
Visibility: 10 or more miles (16+ km)
Ceiling: at least 12,000 feet AGL
Clouds: sky clear below 12,000 feet AGL
Present Weather: automated observation with no human augmentation;
there may or may not be significant weather present at this time
KINF 232255Z AUTO 00000KT 10SM CLR 25/25 A2998 RMK AO2

Conditions at: KINF observed 23 July 2017  22:35 UTC
Temperature: 25.0°C (77°F)
Dewpoint: 25.0°C (77°F) [RH = 100%]
Pressure (altimeter): 29.98 inches Hg (1015.3 mb)
Winds: from the SSE (150 degrees) at 5 MPH (4 knots; 2.1 m/s)
Visibility: 10 or more miles (16+ km)
Ceiling: at least 12,000 feet AGL
Clouds: sky clear below 12,000 feet AGL
Present Weather: automated observation with no human augmentation;
there may or may not be significant weather present at this time
KINF 232235Z AUTO 15004KT 10SM CLR 25/25 A2998 RMK AO2

Conditions at: KINF observed 23 July 2017  22:15 UTC
Temperature: 25.0°C (77°F)
Dewpoint: 24.0°C (75°F) [RH = 94%]
Pressure (altimeter): 30.00 inches Hg (1016.0 mb)
Winds: calm
Visibility: 10 or more miles (16+ km)
Ceiling: at least 12,000 feet AGL
Clouds: scattered clouds at 400 feet AGL
scattered clouds at 5500 feet AGL
Present Weather: automated observation with no human augmentation;
there may or may not be significant weather present at this time
KINF 232215Z AUTO 00000KT 10SM SCT004 SCT055 25/24 A3000 RMK AO2

Conditions at: KINF observed 23 July 2017  21:55 UTC
Temperature: 24.0°C (75°F)
Dewpoint: 24.0°C (75°F) [RH = 100%]
Pressure (altimeter): 30.01 inches Hg (1016.3 mb)
Winds: calm
Visibility: 10 or more miles (16+ km)
Ceiling: at least 12,000 feet AGL
Clouds: scattered clouds at 600 feet AGL
scattered clouds at 5500 feet AGL
Present Weather: -RA  (light rain)
KINF 232155Z AUTO 00000KT 10SM -RA SCT006 SCT055 24/24 A3001 RMK AO2

Conditions at: KINF observed 23 July 2017  21:35 UTC
Temperature: 24.0°C (75°F)
Dewpoint: 24.0°C (75°F) [RH = 100%]
Pressure (altimeter): 30.02 inches Hg (1016.7 mb)
Winds: from the S (170 degrees) at 5 MPH (4 knots; 2.1 m/s)
Visibility: 10 or more miles (16+ km)
Ceiling: at least 12,000 feet AGL
Clouds: scattered clouds at 600 feet AGL
scattered clouds at 10000 feet AGL
Present Weather: automated observation with no human augmentation;
there may or may not be significant weather present at this time
KINF 232135Z AUTO 17004KT 10SM SCT006 SCT100 24/24 A3002 RMK AO2

Conditions at: KINF observed 23 July 2017  21:15 UTC
Temperature: 24.0°C (75°F)
Dewpoint: 24.0°C (75°F) [RH = 100%]
Pressure (altimeter): 30.03 inches Hg (1017.0 mb)
Winds: from the S (190 degrees) at 3 MPH (3 knots; 1.6 m/s)
Visibility: 10 or more miles (16+ km)
Ceiling: at least 12,000 feet AGL
Clouds: sky clear below 12,000 feet AGL
Present Weather: DZ  (drizzle)
KINF 232115Z AUTO 19003KT 10SM DZ CLR 24/24 A3003 RMK AO2

Conditions at: KINF observed 23 July 2017  20:55 UTC
Temperature: 24.0°C (75°F)
Dewpoint: 24.0°C (75°F) [RH = 100%]
Pressure (altimeter): 30.03 inches Hg (1017.0 mb)
Winds: from the S (180 degrees) at 3 MPH (3 knots; 1.6 m/s)
Visibility: 10 or more miles (16+ km)
Ceiling: at least 12,000 feet AGL
Clouds: scattered clouds at 4900 feet AGL
scattered clouds at 6000 feet AGL
scattered clouds at 10000 feet AGL
Present Weather: -RA  (light rain)
KINF 232055Z AUTO 18003KT 10SM -RA SCT049 SCT060 SCT100 24/24 A3003 RMK AO2 P0001

Conditions at: KINF observed 23 July 2017  20:35 UTC
Temperature: 24.0°C (75°F)
Dewpoint: 24.0°C (75°F) [RH = 100%]
Pressure (altimeter): 30.04 inches Hg (1017.4 mb)
Winds: calm
Visibility: 10 or more miles (16+ km)
Ceiling: at least 12,000 feet AGL
Clouds: scattered clouds at 3100 feet AGL
scattered clouds at 3800 feet AGL
scattered clouds at 4700 feet AGL
Present Weather: -RA  (light rain)
KINF 232035Z AUTO 00000KT 10SM -RA SCT031 SCT038 SCT047 24/24 A3004 RMK AO2 LTG DSNT NE AND E

Conditions at: KINF observed 23 July 2017  20:15 UTC
Temperature: 24.0°C (75°F)
Dewpoint: 24.0°C (75°F) [RH = 100%]
Pressure (altimeter): 30.05 inches Hg (1017.7 mb)
Winds: calm
Visibility: 10 or more miles (16+ km)
Ceiling: 4300 feet AGL
Clouds: scattered clouds at 3100 feet AGL
broken clouds at 4300 feet AGL
overcast cloud deck at 5000 feet AGL
Present Weather: -RA  (light rain)
KINF 232015Z AUTO 00000KT 10SM -RA SCT031 BKN043 OVC050 24/24 A3005 RMK AO2

Conditions at: KINF observed 23 July 2017  19:55 UTC
Temperature: 23.0°C (73°F)
Dewpoint: 23.0°C (73°F) [RH = 100%]
Pressure (altimeter): 30.05 inches Hg (1017.7 mb)
Winds: calm
Visibility: 10 or more miles (16+ km)
Ceiling: 4300 feet AGL
Clouds: scattered clouds at 2900 feet AGL
broken clouds at 4300 feet AGL
overcast cloud deck at 4900 feet AGL
Present Weather: -RA  (light rain)
KINF 231955Z AUTO 00000KT 10SM -RA SCT029 BKN043 OVC049 23/23 A3005 RMK AO2 P0001

Conditions at: KINF observed 23 July 2017  19:35 UTC
Temperature: 23.0°C (73°F)
Dewpoint: 23.0°C (73°F) [RH = 100%]
Pressure (altimeter): 30.04 inches Hg (1017.4 mb)
Winds: calm
Visibility: 10 or more miles (16+ km)
Ceiling: 4100 feet AGL
Clouds: scattered clouds at 3400 feet AGL
broken clouds at 4100 feet AGL
overcast cloud deck at 4700 feet AGL
Present Weather: RA  (rain)
KINF 231935Z AUTO 00000KT 10SM RA SCT034 BKN041 OVC047 23/23 A3004 RMK AO2

Conditions at: KINF observed 23 July 2017  19:15 UTC
Temperature: 23.0°C (73°F)
Dewpoint: 23.0°C (73°F) [RH = 100%]
Pressure (altimeter): 30.05 inches Hg (1017.7 mb)
Winds: calm
Visibility: 10 or more miles (16+ km)
Ceiling: 4900 feet AGL
Clouds: scattered clouds at 3100 feet AGL
broken clouds at 4900 feet AGL
broken clouds at 5500 feet AGL
Present Weather: RA  (rain)
KINF 231915Z AUTO 00000KT 10SM RA SCT031 BKN049 BKN055 23/23 A3005 RMK AO2 LTG DSNT W

Conditions at: KINF observed 23 July 2017  18:55 UTC
Temperature: 23.0°C (73°F)
Dewpoint: 23.0°C (73°F) [RH = 100%]
Pressure (altimeter): 30.04 inches Hg (1017.4 mb)
Winds: calm
Visibility: 10 or more miles (16+ km)
Ceiling: at least 12,000 feet AGL
Clouds: scattered clouds at 3300 feet AGL
Present Weather: RA  (rain)
KINF 231855Z AUTO 00000KT 10SM RA SCT033 23/23 A3004 RMK AO2 LTG DSNT W

Conditions at: KINF observed 23 July 2017  18:35 UTC
Temperature: 23.0°C (73°F)
Dewpoint: 23.0°C (73°F) [RH = 100%]
Pressure (altimeter): 30.05 inches Hg (1017.7 mb)
Winds: calm
Visibility: 10 or more miles (16+ km)
Ceiling: at least 12,000 feet AGL
Clouds: sky clear below 12,000 feet AGL
Present Weather: -DZ  (light drizzle)
KINF 231835Z AUTO 00000KT 10SM -DZ CLR 23/23 A3005 RMK AO2 LTG DSNT NE AND W

Conditions at: KINF observed 23 July 2017  18:15 UTC
Temperature: 23.0°C (73°F)
Dewpoint: 23.0°C (73°F) [RH = 100%]
Pressure (altimeter): 30.05 inches Hg (1017.7 mb)
Winds: from the WSW (240 degrees) at 3 MPH (3 knots; 1.6 m/s)
Visibility: 10 or more miles (16+ km)
Ceiling: at least 12,000 feet AGL
Clouds: scattered clouds at 5000 feet AGL
scattered clouds at 8000 feet AGL
scattered clouds at 9000 feet AGL
Present Weather: automated observation with no human augmentation;
there may or may not be significant weather present at this time
KINF 231815Z AUTO 24003KT 10SM SCT050 SCT080 SCT090 23/23 A3005 RMK AO2 LTG DSNT NE

Conditions at: KINF observed 23 July 2017  17:55 UTC
Temperature: 23.0°C (73°F)
Dewpoint: 23.0°C (73°F) [RH = 100%]
Pressure (altimeter): 30.06 inches Hg (1018.0 mb)
Winds: from the SW (230 degrees) at 5 MPH (4 knots; 2.1 m/s)
Visibility: 10 or more miles (16+ km)
Ceiling: 6500 feet AGL
Clouds: scattered clouds at 5000 feet AGL
broken clouds at 6500 feet AGL
broken clouds at 8000 feet AGL
Present Weather: -DZ  (light drizzle)
KINF 231755Z AUTO 23004KT 10SM -DZ SCT050 BKN065 BKN080 23/23 A3006 RMK AO2 LTG DSNT W P0001

Conditions at: KINF observed 23 July 2017  17:35 UTC
Temperature: 23.0°C (73°F)
Dewpoint: 23.0°C (73°F) [RH = 100%]
Pressure (altimeter): 30.07 inches Hg (1018.4 mb)
Winds: from the SSW (200 degrees) at 6 MPH (5 knots; 2.6 m/s)
Visibility: 10 or more miles (16+ km)
Ceiling: 3600 feet AGL
Clouds: scattered clouds at 2900 feet AGL
broken clouds at 3600 feet AGL
overcast cloud deck at 6500 feet AGL
Present Weather: DZ  (drizzle)
KINF 231735Z AUTO 20005KT 10SM DZ SCT029 BKN036 OVC065 23/23 A3007 RMK AO2 P0001

Conditions at: KINF observed 23 July 2017  17:15 UTC
Temperature: 23.0°C (73°F)
Dewpoint: 23.0°C (73°F) [RH = 100%]
Pressure (altimeter): 30.09 inches Hg (1019.0 mb)
Winds: from the SW (220 degrees) at 3 MPH (3 knots; 1.6 m/s)
Visibility: 10 or more miles (16+ km)
Ceiling: 3000 feet AGL
Clouds: broken clouds at 3000 feet AGL
broken clouds at 3500 feet AGL
overcast cloud deck at 4100 feet AGL
Present Weather: -RA  (light rain)
KINF 231715Z AUTO 22003KT 10SM -RA BKN030 BKN035 OVC041 23/23 A3009 RMK AO2 LTG DSNT N AND SW

Conditions at: KINF observed 23 July 2017  16:55 UTC
Temperature: 23.0°C (73°F)
Dewpoint: 23.0°C (73°F) [RH = 100%]
Pressure (altimeter): 30.11 inches Hg (1019.7 mb)
Winds: calm
Visibility: 10 or more miles (16+ km)
Ceiling: 3900 feet AGL
Clouds: scattered clouds at 3100 feet AGL
broken clouds at 3900 feet AGL
overcast cloud deck at 4800 feet AGL
Present Weather: -RA  (light rain)
KINF 231655Z AUTO 00000KT 10SM -RA SCT031 BKN039 OVC048 23/23 A3011 RMK AO2 LTG DSNT NW P0003

Conditions at: KINF observed 23 July 2017  16:35 UTC
Temperature: 23.0°C (73°F)
Dewpoint: 23.0°C (73°F) [RH = 100%]
Pressure (altimeter): 30.11 inches Hg (1019.7 mb)
Winds: calm
Visibility: 10 or more miles (16+ km)
Ceiling: 4700 feet AGL
Clouds: scattered clouds at 3200 feet AGL
broken clouds at 4700 feet AGL
overcast cloud deck at 6500 feet AGL
Present Weather: -RA  (light rain)
KINF 231635Z AUTO 00000KT 10SM -RA SCT032 BKN047 OVC065 23/23 A3011 RMK AO2 LTG DSNT E S AND NW P0002

Conditions at: KINF observed 23 July 2017  16:15 UTC
Temperature: 23.0°C (73°F)
Dewpoint: 23.0°C (73°F) [RH = 100%]
Pressure (altimeter): 30.11 inches Hg (1019.7 mb)
Winds: calm
Visibility: 10 or more miles (16+ km)
Ceiling: 6500 feet AGL
Clouds: scattered clouds at 4800 feet AGL
overcast cloud deck at 6500 feet AGL
Present Weather: -RA  (light rain)
KINF 231615Z AUTO 00000KT 10SM -RA SCT048 OVC065 23/23 A3011 RMK AO2 LTG DSNT SW THRU NE

Conditions at: KINF observed 23 July 2017  15:55 UTC
Temperature: 22.0°C (72°F)
Dewpoint: 22.0°C (72°F) [RH = 100%]
Pressure (altimeter): 30.10 inches Hg (1019.4 mb)
Winds: calm
Visibility: 10 or more miles (16+ km)
Ceiling: 4800 feet AGL
Clouds: scattered clouds at 3900 feet AGL
broken clouds at 4800 feet AGL
overcast cloud deck at 6000 feet AGL
Present Weather: -RA  (light rain)
KINF 231555Z AUTO 00000KT 10SM -RA SCT039 BKN048 OVC060 22/22 A3010 RMK AO2 LTG DSNT ALQS P0002

Conditions at: KINF observed 23 July 2017  15:35 UTC
Temperature: 22.0°C (72°F)
Dewpoint: 22.0°C (72°F) [RH = 100%]
Pressure (altimeter): 30.10 inches Hg (1019.4 mb)
Winds: from the SSW (200 degrees) at 3 MPH (3 knots; 1.6 m/s)
Visibility: 10 or more miles (16+ km)
Ceiling: 6000 feet AGL
Clouds: scattered clouds at 4600 feet AGL
broken clouds at 6000 feet AGL
overcast cloud deck at 7000 feet AGL
Present Weather: -RA  (light rain)
KINF 231535Z AUTO 20003KT 10SM -RA SCT046 BKN060 OVC070 22/22 A3010 RMK AO2 LTG DSNT NE AND SW P0001

Conditions at: KINF observed 23 July 2017  15:15 UTC
Temperature: 22.0°C (72°F)
Dewpoint: 22.0°C (72°F) [RH = 100%]
Pressure (altimeter): 30.09 inches Hg (1019.0 mb)
Winds: calm
Visibility: 10 or more miles (16+ km)
Ceiling: 6000 feet AGL
Clouds: scattered clouds at 5000 feet AGL
broken clouds at 6000 feet AGL
overcast cloud deck at 8000 feet AGL
Present Weather: -TSRA  (light rain associated with thunderstorm(s))
KINF 231515Z AUTO 00000KT 10SM -TSRA SCT050 BKN060 OVC080 22/22 A3009 RMK AO2 LTG DSNT ALQS

Conditions at: KINF observed 23 July 2017  14:55 UTC
Temperature: 22.0°C (72°F)
Dewpoint: 22.0°C (72°F) [RH = 100%]
Pressure (altimeter): 30.08 inches Hg (1018.7 mb)
Winds: from the SSW (200 degrees) at 3 MPH (3 knots; 1.6 m/s)
Visibility: 10 or more miles (16+ km)
Ceiling: 6000 feet AGL
Clouds: scattered clouds at 5000 feet AGL
overcast cloud deck at 6000 feet AGL
Present Weather: -RA  (light rain)
KINF 231455Z AUTO 20003KT 10SM -RA SCT050 OVC060 22/22 A3008 RMK AO2 LTG DSNT ALQS P0005

Conditions at: KINF observed 23 July 2017  14:35 UTC
Temperature: 22.0°C (72°F)
Dewpoint: 22.0°C (72°F) [RH = 100%]
Pressure (altimeter): 30.08 inches Hg (1018.7 mb)
Winds: from the SSW (200 degrees) at 3 MPH (3 knots; 1.6 m/s)
Visibility: 10 or more miles (16+ km)
Ceiling: 7000 feet AGL
Clouds: scattered clouds at 5500 feet AGL
overcast cloud deck at 7000 feet AGL
Present Weather: -RA  (light rain)
KINF 231435Z AUTO 20003KT 10SM -RA SCT055 OVC070 22/22 A3008 RMK AO2 LTG DSNT NE S AND SW P0003

Conditions at: KINF observed 23 July 2017  14:15 UTC
Temperature: 22.0°C (72°F)
Dewpoint: 22.0°C (72°F) [RH = 100%]
Pressure (altimeter): 30.08 inches Hg (1018.7 mb)
Winds: from the SSW (200 degrees) at 3 MPH (3 knots; 1.6 m/s)
Visibility: 7 miles (11 km)
Ceiling: 5500 feet AGL
Clouds: scattered clouds at 700 feet AGL
scattered clouds at 2700 feet AGL
overcast cloud deck at 5500 feet AGL
Present Weather: VCTS -RA  (thunderstorm in vicinity, light rain)
KINF 231415Z AUTO 20003KT 7SM -VCTSRA SCT007 SCT027 OVC055 22/22 A3008 RMK AO2 LTG DSNT ALQS P0002

Conditions at: KINF observed 23 July 2017  13:55 UTC
Temperature: 23.0°C (73°F)
Dewpoint: 23.0°C (73°F) [RH = 100%]
Pressure (altimeter): 30.08 inches Hg (1018.7 mb)
Winds: from the SW (220 degrees) at 6 MPH (5 knots; 2.6 m/s)
Visibility: 7 miles (11 km)
Ceiling: 700 feet AGL
Clouds: broken clouds at 700 feet AGL
broken clouds at 2700 feet AGL
overcast cloud deck at 5500 feet AGL
Present Weather: VCTS RA  (thunderstorm in vicinity, rain)
KINF 231355Z AUTO 22005KT 7SM VCTSRA BKN007 BKN027 OVC055 23/23 A3008 RMK AO2 LTG DSNT NE S AND W P0009

Conditions at: KINF observed 23 July 2017  13:35 UTC
Temperature: 24.0°C (75°F)
Dewpoint: 24.0°C (75°F) [RH = 100%]
Pressure (altimeter): 30.07 inches Hg (1018.4 mb)
Winds: from the SSW (200 degrees) at 3 MPH (3 knots; 1.6 m/s)
Visibility: 4 miles (6 km)
Ceiling: 900 feet AGL
Clouds: broken clouds at 900 feet AGL
broken clouds at 2400 feet AGL
overcast cloud deck at 5500 feet AGL
Present Weather: VCTS RA  (thunderstorm in vicinity, rain)
KINF 231335Z AUTO 20003KT 4SM VCTSRA BKN009 BKN024 OVC055 24/24 A3007 RMK AO2 LTG DSNT ALQS P0006

Conditions at: KINF observed 23 July 2017  13:15 UTC
Temperature: 24.0°C (75°F)
Dewpoint: 24.0°C (75°F) [RH = 100%]
Pressure (altimeter): 30.07 inches Hg (1018.4 mb)
Winds: calm
Visibility: 5 miles (8 km)
Ceiling: 6000 feet AGL
Clouds: scattered clouds at 3800 feet AGL
scattered clouds at 5000 feet AGL
overcast cloud deck at 6000 feet AGL
Present Weather: VCTS RA  (thunderstorm in vicinity, rain)
KINF 231315Z AUTO 00000KT 5SM VCTSRA SCT038 SCT050 OVC060 24/24 A3007 RMK AO2 LTG DSNT S THRU W P0002

Conditions at: KINF observed 23 July 2017  12:55 UTC
Temperature: 24.0°C (75°F)
Dewpoint: 24.0°C (75°F) [RH = 100%]
Pressure (altimeter): 30.07 inches Hg (1018.4 mb)
Winds: calm
Visibility: 7 miles (11 km)
Ceiling: 7000 feet AGL
Clouds: scattered clouds at 6000 feet AGL
overcast cloud deck at 7000 feet AGL
Present Weather: VCTS -RA  (thunderstorm in vicinity, light rain)
KINF 231255Z AUTO 00000KT 7SM -VCTSRA SCT060 OVC070 24/24 A3007 RMK AO2 LTG DSNT SW THRU NW P0004

Conditions at: KINF observed 23 July 2017  12:35 UTC
Temperature: 24.0°C (75°F)
Dewpoint: 24.0°C (75°F) [RH = 100%]
Pressure (altimeter): 30.06 inches Hg (1018.0 mb)
Winds: calm
Visibility: 7 miles (11 km)
Ceiling: 7000 feet AGL
Clouds: broken clouds at 7000 feet AGL
overcast cloud deck at 8500 feet AGL
Present Weather: VCTS RA  (thunderstorm in vicinity, rain)
KINF 231235Z AUTO 00000KT 7SM VCTSRA BKN070 OVC085 24/24 A3006 RMK AO2 LTG DSNT SW AND W P0002

Conditions at: KINF observed 23 July 2017  12:15 UTC
Temperature: 24.0°C (75°F)
Dewpoint: 24.0°C (75°F) [RH = 100%]
Pressure (altimeter): 30.06 inches Hg (1018.0 mb)
Winds: from the S (190 degrees) at 3 MPH (3 knots; 1.6 m/s)
Visibility: 10 or more miles (16+ km)
Ceiling: 7000 feet AGL
Clouds: broken clouds at 7000 feet AGL
broken clouds at 8500 feet AGL
Present Weather: VCTS -RA  (thunderstorm in vicinity, light rain)
KINF 231215Z AUTO 19003KT 10SM -VCTSRA BKN070 BKN085 24/24 A3006 RMK AO2 LTG DSNT SW AND W

Conditions at: KINF observed 23 July 2017  11:55 UTC
Temperature: 24.0°C (75°F)
Dewpoint: 24.0°C (75°F) [RH = 100%]
Pressure (altimeter): 30.05 inches Hg (1017.7 mb)
Winds: from the S (180 degrees) at 3 MPH (3 knots; 1.6 m/s)
Visibility: 7 miles (11 km)
Ceiling: at least 12,000 feet AGL
Clouds: scattered clouds at 7000 feet AGL
Present Weather: VCTS -RA  (thunderstorm in vicinity, light rain)
KINF 231155Z AUTO 18003KT 7SM -VCTSRA SCT070 24/24 A3005 RMK AO2 LTG DSNT SW AND W

Conditions at: KINF observed 23 July 2017  11:35 UTC
Temperature: 24.0°C (75°F)
Dewpoint: 24.0°C (75°F) [RH = 100%]
Pressure (altimeter): 30.04 inches Hg (1017.4 mb)
Winds: calm
Visibility: 7 miles (11 km)
Ceiling: at least 12,000 feet AGL
Clouds: sky clear below 12,000 feet AGL
Present Weather: VCTS  (thunderstorm in vicinity)
KINF 231135Z AUTO 00000KT 7SM VCTS CLR 24/24 A3004 RMK AO2 LTG DSNT S THRU W

Conditions at: KINF observed 23 July 2017  11:15 UTC
Temperature: 23.0°C (73°F)
Dewpoint: 23.0°C (73°F) [RH = 100%]
Pressure (altimeter): 30.03 inches Hg (1017.0 mb)
Winds: calm
Visibility: 7 miles (11 km)
Ceiling: at least 12,000 feet AGL
Clouds: sky clear below 12,000 feet AGL
Present Weather: VCTS  (thunderstorm in vicinity)
KINF 231115Z AUTO 00000KT 7SM VCTS CLR 23/23 A3003 RMK AO2 LTG DSNT S THRU NW

Conditions at: KINF observed 23 July 2017  10:55 UTC
Temperature: 23.0°C (73°F)
Dewpoint: 23.0°C (73°F) [RH = 100%]
Pressure (altimeter): 30.02 inches Hg (1016.7 mb)
Winds: calm
Visibility: 5 miles (8 km)
Ceiling: at least 12,000 feet AGL
Clouds: sky clear below 12,000 feet AGL
Present Weather: TS BR  (thunderstorm, mist)
KINF 231055Z AUTO 00000KT 5SM TS BR CLR 23/23 A3002 RMK AO2 LTG DSNT S THRU NW

Conditions at: KINF observed 23 July 2017  10:35 UTC
Temperature: 23.0°C (73°F)
Dewpoint: 23.0°C (73°F) [RH = 100%]
Pressure (altimeter): 30.02 inches Hg (1016.7 mb)
Winds: calm
Visibility: 7 miles (11 km)
Ceiling: at least 12,000 feet AGL
Clouds: sky clear below 12,000 feet AGL
Present Weather: VCTS  (thunderstorm in vicinity)
KINF 231035Z AUTO 00000KT 7SM VCTS CLR 23/23 A3002 RMK AO2 LTG DSNT SW THRU NW

Conditions at: KINF observed 23 July 2017  10:15 UTC
Temperature: 23.0°C (73°F)
Dewpoint: 23.0°C (73°F) [RH = 100%]
Pressure (altimeter): 30.02 inches Hg (1016.7 mb)
Winds: calm
Visibility: 7 miles (11 km)
Ceiling: at least 12,000 feet AGL
Clouds: sky clear below 12,000 feet AGL
Present Weather: VCTS  (thunderstorm in vicinity)
KINF 231015Z AUTO 00000KT 7SM VCTS CLR 23/23 A3002 RMK AO2 LTG DSNT ALQS

Conditions at: KINF observed 23 July 2017  09:55 UTC
Temperature: 23.0°C (73°F)
Dewpoint: 23.0°C (73°F) [RH = 100%]
Pressure (altimeter): 30.02 inches Hg (1016.7 mb)
Winds: calm
Visibility: 7 miles (11 km)
Ceiling: at least 12,000 feet AGL
Clouds: sky clear below 12,000 feet AGL
Present Weather: automated observation with no human augmentation;
there may or may not be significant weather present at this time
KINF 230955Z AUTO 00000KT 7SM CLR 23/23 A3002 RMK AO2 LTG DSNT E THRU SW

Conditions at: KINF observed 23 July 2017  09:35 UTC
Temperature: 23.0°C (73°F)
Dewpoint: 23.0°C (73°F) [RH = 100%]
Pressure (altimeter): 30.02 inches Hg (1016.7 mb)
Winds: from the S (180 degrees) at 3 MPH (3 knots; 1.6 m/s)
Visibility: 7 miles (11 km)
Ceiling: at least 12,000 feet AGL
Clouds: sky clear below 12,000 feet AGL
Present Weather: automated observation with no human augmentation;
there may or may not be significant weather present at this time
KINF 230935Z AUTO 18003KT 7SM CLR 23/23 A3002 RMK AO2 LTG DSNT SW THRU NW

Conditions at: KINF observed 23 July 2017  09:15 UTC
Temperature: 23.0°C (73°F)
Dewpoint: 23.0°C (73°F) [RH = 100%]
Pressure (altimeter): 30.02 inches Hg (1016.7 mb)
Winds: calm
Visibility: 7 miles (11 km)
Ceiling: at least 12,000 feet AGL
Clouds: sky clear below 12,000 feet AGL
Present Weather: automated observation with no human augmentation;
there may or may not be significant weather present at this time
KINF 230915Z AUTO 00000KT 7SM CLR 23/23 A3002 RMK AO2 LTG DSNT S THRU NW

Conditions at: KINF observed 23 July 2017  08:55 UTC
Temperature: 24.0°C (75°F)
Dewpoint: 24.0°C (75°F) [RH = 100%]
Pressure (altimeter): 30.02 inches Hg (1016.7 mb)
Winds: from the S (170 degrees) at 3 MPH (3 knots; 1.6 m/s)
Visibility: 7 miles (11 km)
Ceiling: at least 12,000 feet AGL
Clouds: sky clear below 12,000 feet AGL
Present Weather: automated observation with no human augmentation;
there may or may not be significant weather present at this time
KINF 230855Z AUTO 17003KT 7SM CLR 24/24 A3002 RMK AO2 LTG DSNT S THRU NW

Conditions at: KINF observed 23 July 2017  08:35 UTC
Temperature: 24.0°C (75°F)
Dewpoint: 24.0°C (75°F) [RH = 100%]
Pressure (altimeter): 30.01 inches Hg (1016.3 mb)
Winds: calm
Visibility: 7 miles (11 km)
Ceiling: at least 12,000 feet AGL
Clouds: sky clear below 12,000 feet AGL
Present Weather: VCTS  (thunderstorm in vicinity)
KINF 230835Z AUTO 00000KT 7SM VCTS CLR 24/24 A3001 RMK AO2 LTG DSNT S THRU N

Conditions at: KINF observed 23 July 2017  08:15 UTC
Temperature: 24.0°C (75°F)
Dewpoint: 24.0°C (75°F) [RH = 100%]
Pressure (altimeter): 30.01 inches Hg (1016.3 mb)
Winds: calm
Visibility: 7 miles (11 km)
Ceiling: at least 12,000 feet AGL
Clouds: sky clear below 12,000 feet AGL
Present Weather: automated observation with no human augmentation;
there may or may not be significant weather present at this time
KINF 230815Z AUTO 00000KT 7SM CLR 24/24 A3001 RMK AO2 LTG DSNT S THRU NW

Conditions at: KINF observed 23 July 2017  07:55 UTC
Temperature: 24.0°C (75°F)
Dewpoint: 24.0°C (75°F) [RH = 100%]
Pressure (altimeter): 30.01 inches Hg (1016.3 mb)
Winds: calm
Visibility: 7 miles (11 km)
Ceiling: at least 12,000 feet AGL
Clouds: sky clear below 12,000 feet AGL
Present Weather: automated observation with no human augmentation;
there may or may not be significant weather present at this time
KINF 230755Z AUTO 00000KT 7SM CLR 24/24 A3001 RMK AO2 LTG DSNT S AND NW

Conditions at: KINF observed 23 July 2017  07:35 UTC
Temperature: 24.0°C (75°F)
Dewpoint: 24.0°C (75°F) [RH = 100%]
Pressure (altimeter): 30.02 inches Hg (1016.7 mb)
Winds: from the SSE (160 degrees) at 3 MPH (3 knots; 1.6 m/s)
Visibility: 7 miles (11 km)
Ceiling: at least 12,000 feet AGL
Clouds: sky clear below 12,000 feet AGL
Present Weather: automated observation with no human augmentation;
there may or may not be significant weather present at this time
KINF 230735Z AUTO 16003KT 7SM CLR 24/24 A3002 RMK AO2 LTG DSNT NW

Conditions at: KINF observed 23 July 2017  07:15 UTC
Temperature: 24.0°C (75°F)
Dewpoint: 24.0°C (75°F) [RH = 100%]
Pressure (altimeter): 30.03 inches Hg (1017.0 mb)
Winds: calm
Visibility: 7 miles (11 km)
Ceiling: at least 12,000 feet AGL
Clouds: sky clear below 12,000 feet AGL
Present Weather: VCTS  (thunderstorm in vicinity)
KINF 230715Z AUTO 00000KT 7SM VCTS CLR 24/24 A3003 RMK AO2 LTG DSNT NW

Conditions at: KINF observed 23 July 2017  06:55 UTC
Temperature: 24.0°C (75°F)
Dewpoint: 24.0°C (75°F) [RH = 100%]
Pressure (altimeter): 30.03 inches Hg (1017.0 mb)
Winds: calm
Visibility: 7 miles (11 km)
Ceiling: at least 12,000 feet AGL
Clouds: sky clear below 12,000 feet AGL
Present Weather: automated observation with no human augmentation;
there may or may not be significant weather present at this time
KINF 230655Z AUTO 00000KT 7SM CLR 24/24 A3003 RMK AO2 LTG DSNT NW

Conditions at: KINF observed 23 July 2017  06:35 UTC
Temperature: 24.0°C (75°F)
Dewpoint: 24.0°C (75°F) [RH = 100%]
Pressure (altimeter): 30.03 inches Hg (1017.0 mb)
Winds: calm
Visibility: 7 miles (11 km)
Ceiling: at least 12,000 feet AGL
Clouds: sky clear below 12,000 feet AGL
Present Weather: VCTS  (thunderstorm in vicinity)
KINF 230635Z AUTO 00000KT 7SM VCTS CLR 24/24 A3003 RMK AO2 LTG DSNT W AND NW

Conditions at: KINF observed 23 July 2017  06:15 UTC
Temperature: 24.0°C (75°F)
Dewpoint: 24.0°C (75°F) [RH = 100%]
Pressure (altimeter): 30.04 inches Hg (1017.4 mb)
Winds: calm
Visibility: 7 miles (11 km)
Ceiling: at least 12,000 feet AGL
Clouds: sky clear below 12,000 feet AGL
Present Weather: automated observation with no human augmentation;
there may or may not be significant weather present at this time
KINF 230615Z AUTO 00000KT 7SM CLR 24/24 A3004 RMK AO2 LTG DSNT W AND NW

Conditions at: KINF observed 23 July 2017  05:55 UTC
Temperature: 24.0°C (75°F)
Dewpoint: 24.0°C (75°F) [RH = 100%]
Pressure (altimeter): 30.05 inches Hg (1017.7 mb)
Winds: calm
Visibility: 7 miles (11 km)
Ceiling: at least 12,000 feet AGL
Clouds: scattered clouds at 300 feet AGL
Present Weather: automated observation with no human augmentation;
there may or may not be significant weather present at this time
KINF 230555Z AUTO 00000KT 7SM SCT003 24/24 A3005 RMK AO2

Conditions at: KINF observed 23 July 2017  05:35 UTC
Temperature: 24.0°C (75°F)
Dewpoint: 24.0°C (75°F) [RH = 100%]
Pressure (altimeter): 30.06 inches Hg (1018.0 mb)
Winds: calm
Visibility: 7 miles (11 km)
Ceiling: at least 12,000 feet AGL
Clouds: scattered clouds at 300 feet AGL
Present Weather: automated observation with no human augmentation;
there may or may not be significant weather present at this time
KINF 230535Z AUTO 00000KT 7SM SCT003 24/24 A3006 RMK AO2

Conditions at: KINF observed 23 July 2017  05:15 UTC
Temperature: 24.0°C (75°F)
Dewpoint: 24.0°C (75°F) [RH = 100%]
Pressure (altimeter): 30.06 inches Hg (1018.0 mb)
Winds: from the S (170 degrees) at 3 MPH (3 knots; 1.6 m/s)
Visibility: 7 miles (11 km)
Ceiling: 300 feet AGL
Clouds: broken clouds at 300 feet AGL
Present Weather: automated observation with no human augmentation;
there may or may not be significant weather present at this time
KINF 230515Z AUTO 17003KT 7SM BKN003 24/24 A3006 RMK AO2

Conditions at: KINF observed 23 July 2017  04:55 UTC
Temperature: 24.0°C (75°F)
Dewpoint: 24.0°C (75°F) [RH = 100%]
Pressure (altimeter): 30.06 inches Hg (1018.0 mb)
Winds: from the SSE (150 degrees) at 5 MPH (4 knots; 2.1 m/s)
Visibility: 7 miles (11 km)
Ceiling: at least 12,000 feet AGL
Clouds: scattered clouds at 300 feet AGL
scattered clouds at 700 feet AGL
Present Weather: automated observation with no human augmentation;
there may or may not be significant weather present at this time
KINF 230455Z AUTO 15004KT 7SM SCT003 SCT007 24/24 A3006 RMK AO2

Conditions at: KINF observed 23 July 2017  04:35 UTC
Temperature: 24.0°C (75°F)
Dewpoint: 24.0°C (75°F) [RH = 100%]
Pressure (altimeter): 30.06 inches Hg (1018.0 mb)
Winds: calm
Visibility: 10 or more miles (16+ km)
Ceiling: 700 feet AGL
Clouds: scattered clouds at 300 feet AGL
broken clouds at 700 feet AGL
Present Weather: automated observation with no human augmentation;
there may or may not be significant weather present at this time
KINF 230435Z AUTO 00000KT 10SM SCT003 BKN007 24/24 A3006 RMK AO2

Conditions at: KINF observed 23 July 2017  04:15 UTC
Temperature: 25.0°C (77°F)
Dewpoint: 25.0°C (77°F) [RH = 100%]
Pressure (altimeter): 30.06 inches Hg (1018.0 mb)
Winds: calm
Visibility: 7 miles (11 km)
Ceiling: at least 12,000 feet AGL
Clouds: sky clear below 12,000 feet AGL
Present Weather: automated observation with no human augmentation;
there may or may not be significant weather present at this time
KINF 230415Z AUTO 00000KT 7SM CLR 25/25 A3006 RMK AO2

Conditions at: KINF observed 23 July 2017  03:55 UTC
Temperature: 25.0°C (77°F)
Dewpoint: 25.0°C (77°F) [RH = 100%]
Pressure (altimeter): 30.06 inches Hg (1018.0 mb)
Winds: from the ESE (120 degrees) at 3 MPH (3 knots; 1.6 m/s)
Visibility: 10 or more miles (16+ km)
Ceiling: at least 12,000 feet AGL
Clouds: sky clear below 12,000 feet AGL
Present Weather: automated observation with no human augmentation;
there may or may not be significant weather present at this time
KINF 230355Z AUTO 12003KT 10SM CLR 25/25 A3006 RMK AO2

Conditions at: KINF observed 23 July 2017  03:35 UTC
Temperature: 25.0°C (77°F)
Dewpoint: 25.0°C (77°F) [RH = 100%]
Pressure (altimeter): 30.06 inches Hg (1018.0 mb)
Winds: calm
Visibility: 10 or more miles (16+ km)
Ceiling: at least 12,000 feet AGL
Clouds: sky clear below 12,000 feet AGL
Present Weather: automated observation with no human augmentation;
there may or may not be significant weather present at this time
KINF 230335Z AUTO 00000KT 10SM CLR 25/25 A3006 RMK AO2

Conditions at: KINF observed 23 July 2017  03:15 UTC
Temperature: 25.0°C (77°F)
Dewpoint: 25.0°C (77°F) [RH = 100%]
Pressure (altimeter): 30.05 inches Hg (1017.7 mb)
Winds: calm
Visibility: 10 or more miles (16+ km)
Ceiling: at least 12,000 feet AGL
Clouds: sky clear below 12,000 feet AGL
Present Weather: automated observation with no human augmentation;
there may or may not be significant weather present at this time
KINF 230315Z AUTO 00000KT 10SM CLR 25/25 A3005 RMK AO2

Conditions at: KINF observed 23 July 2017  02:55 UTC
Temperature: 25.0°C (77°F)
Dewpoint: 25.0°C (77°F) [RH = 100%]
Pressure (altimeter): 30.05 inches Hg (1017.7 mb)
Winds: calm
Visibility: 10 or more miles (16+ km)
Ceiling: at least 12,000 feet AGL
Clouds: sky clear below 12,000 feet AGL
Present Weather: automated observation with no human augmentation;
there may or may not be significant weather present at this time
KINF 230255Z AUTO 00000KT 10SM CLR 25/25 A3005 RMK AO2

Conditions at: KINF observed 23 July 2017  02:35 UTC
Temperature: 25.0°C (77°F)
Dewpoint: 25.0°C (77°F) [RH = 100%]
Pressure (altimeter): 30.05 inches Hg (1017.7 mb)
Winds: from the S (190 degrees) at 3 MPH (3 knots; 1.6 m/s)
Visibility: 10 or more miles (16+ km)
Ceiling: at least 12,000 feet AGL
Clouds: sky clear below 12,000 feet AGL
Present Weather: automated observation with no human augmentation;
there may or may not be significant weather present at this time
KINF 230235Z AUTO 19003KT 10SM CLR 25/25 A3005 RMK AO2

Conditions at: KINF observed 23 July 2017  02:15 UTC
Temperature: 25.0°C (77°F)
Dewpoint: 25.0°C (77°F) [RH = 100%]
Pressure (altimeter): 30.04 inches Hg (1017.4 mb)
Winds: from the S (190 degrees) at 3 MPH (3 knots; 1.6 m/s)
Visibility: 10 or more miles (16+ km)
Ceiling: at least 12,000 feet AGL
Clouds: sky clear below 12,000 feet AGL
Present Weather: automated observation with no human augmentation;
there may or may not be significant weather present at this time
KINF 230215Z AUTO 19003KT 10SM CLR 25/25 A3004 RMK AO2

Conditions at: KINF observed 23 July 2017  01:55 UTC
Temperature: 25.0°C (77°F)
Dewpoint: 25.0°C (77°F) [RH = 100%]
Pressure (altimeter): 30.04 inches Hg (1017.4 mb)
Winds: from the S (190 degrees) at 5 MPH (4 knots; 2.1 m/s)
Visibility: 10 or more miles (16+ km)
Ceiling: at least 12,000 feet AGL
Clouds: sky clear below 12,000 feet AGL
Present Weather: automated observation with no human augmentation;
there may or may not be significant weather present at this time
KINF 230155Z AUTO 19004KT 10SM CLR 25/25 A3004 RMK AO2

Conditions at: KINF observed 23 July 2017  01:35 UTC
Temperature: 25.0°C (77°F)
Dewpoint: 25.0°C (77°F) [RH = 100%]
Pressure (altimeter): 30.03 inches Hg (1017.0 mb)
Winds: from the S (190 degrees) at 6 MPH (5 knots; 2.6 m/s)
Visibility: 10 or more miles (16+ km)
Ceiling: at least 12,000 feet AGL
Clouds: sky clear below 12,000 feet AGL
Present Weather: VCTS  (thunderstorm in vicinity)
KINF 230135Z AUTO 19005KT 10SM VCTS CLR 25/25 A3003 RMK AO2

Conditions at: KINF observed 23 July 2017  01:15 UTC
Temperature: 25.0°C (77°F)
Dewpoint: 25.0°C (77°F) [RH = 100%]
Pressure (altimeter): 30.04 inches Hg (1017.4 mb)
Winds: from the S (190 degrees) at 7 MPH (6 knots; 3.1 m/s)
Visibility: 10 or more miles (16+ km)
Ceiling: at least 12,000 feet AGL
Clouds: sky clear below 12,000 feet AGL
Present Weather: automated observation with no human augmentation;
there may or may not be significant weather present at this time
KINF 230115Z AUTO 19006KT 10SM CLR 25/25 A3004 RMK AO2

Conditions at: KINF observed 23 July 2017  00:55 UTC
Temperature: 25.0°C (77°F)
Dewpoint: 25.0°C (77°F) [RH = 100%]
Pressure (altimeter): 30.04 inches Hg (1017.4 mb)
Winds: from the S (180 degrees) at 3 MPH (3 knots; 1.6 m/s)
Visibility: 10 or more miles (16+ km)
Ceiling: at least 12,000 feet AGL
Clouds: sky clear below 12,000 feet AGL
Present Weather: automated observation with no human augmentation;
there may or may not be significant weather present at this time
KINF 230055Z AUTO 18003KT 10SM CLR 25/25 A3004 RMK AO2

Conditions at: KINF observed 23 July 2017  00:35 UTC
Temperature: 25.0°C (77°F)
Dewpoint: 25.0°C (77°F) [RH = 100%]
Pressure (altimeter): 30.04 inches Hg (1017.4 mb)
Winds: from the S (180 degrees) at 3 MPH (3 knots; 1.6 m/s)
Visibility: 10 or more miles (16+ km)
Ceiling: at least 12,000 feet AGL
Clouds: sky clear below 12,000 feet AGL
Present Weather: automated observation with no human augmentation;
there may or may not be significant weather present at this time
KINF 230035Z AUTO 18003KT 10SM CLR 25/25 A3004 RMK AO2

Conditions at: KINF observed 23 July 2017  00:15 UTC
Temperature: 26.0°C (79°F)
Dewpoint: 26.0°C (79°F) [RH = 100%]
Pressure (altimeter): 30.05 inches Hg (1017.7 mb)
Winds: from the SSW (200 degrees) at 3 MPH (3 knots; 1.6 m/s)
Visibility: 10 or more miles (16+ km)
Ceiling: at least 12,000 feet AGL
Clouds: sky clear below 12,000 feet AGL
Present Weather: automated observation with no human augmentation;
there may or may not be significant weather present at this time
KINF 230015Z AUTO 20003KT 10SM CLR 26/26 A3005 RMK AO2 LTG DSNT W

Conditions at: KINF observed 22 July 2017  23:55 UTC
Temperature: 26.0°C (79°F)
Dewpoint: 26.0°C (79°F) [RH = 100%]
Pressure (altimeter): 30.04 inches Hg (1017.4 mb)
Winds: from the SSW (200 degrees) at 3 MPH (3 knots; 1.6 m/s)
Visibility: 10 or more miles (16+ km)
Ceiling: at least 12,000 feet AGL
Clouds: sky clear below 12,000 feet AGL
Present Weather: automated observation with no human augmentation;
there may or may not be significant weather present at this time
KINF 222355Z AUTO 20003KT 10SM CLR 26/26 A3004 RMK AO2 LTG DSNT W

Conditions at: KINF observed 22 July 2017  23:35 UTC
Temperature: 26.0°C (79°F)
Dewpoint: 26.0°C (79°F) [RH = 100%]
Pressure (altimeter): 30.04 inches Hg (1017.4 mb)
Winds: from the S (170 degrees) at 3 MPH (3 knots; 1.6 m/s)
Visibility: 10 or more miles (16+ km)
Ceiling: at least 12,000 feet AGL
Clouds: sky clear below 12,000 feet AGL
Present Weather: automated observation with no human augmentation;
there may or may not be significant weather present at this time
KINF 222335Z AUTO 17003KT 10SM CLR 26/26 A3004 RMK AO2 LTG DSNT W

Conditions at: KINF observed 22 July 2017  23:15 UTC
Temperature: 26.0°C (79°F)
Dewpoint: 26.0°C (79°F) [RH = 100%]
Pressure (altimeter): 30.05 inches Hg (1017.7 mb)
Winds: calm
Visibility: 10 or more miles (16+ km)
Ceiling: at least 12,000 feet AGL
Clouds: sky clear below 12,000 feet AGL
Present Weather: automated observation with no human augmentation;
there may or may not be significant weather present at this time
KINF 222315Z AUTO 00000KT 10SM CLR 26/26 A3005 RMK AO2 LTG DSNT SE AND W

Conditions at: KINF observed 22 July 2017  22:55 UTC
Temperature: 26.0°C (79°F)
Dewpoint: 26.0°C (79°F) [RH = 100%]
Pressure (altimeter): 30.05 inches Hg (1017.7 mb)
Winds: calm
Visibility: 10 or more miles (16+ km)
Ceiling: at least 12,000 feet AGL
Clouds: sky clear below 12,000 feet AGL
Present Weather: -RA  (light rain)
KINF 222255Z AUTO 00000KT 10SM -RA CLR 26/26 A3005 RMK AO2 LTG DSNT S AND W

Conditions at: KINF observed 22 July 2017  22:35 UTC
Temperature: 26.0°C (79°F)
Dewpoint: 26.0°C (79°F) [RH = 100%]
Pressure (altimeter): 30.06 inches Hg (1018.0 mb)
Winds: from the SE (140 degrees) at 3 MPH (3 knots; 1.6 m/s)
Visibility: 7 miles (11 km)
Ceiling: at least 12,000 feet AGL
Clouds: sky clear below 12,000 feet AGL
Present Weather: automated observation with no human augmentation;
there may or may not be significant weather present at this time
KINF 222235Z AUTO 14003KT 7SM CLR 26/26 A3006 RMK AO2 LTG DSNT S

Conditions at: KINF observed 22 July 2017  22:15 UTC
Temperature: 26.0°C (79°F)
Dewpoint: 26.0°C (79°F) [RH = 100%]
Pressure (altimeter): 30.06 inches Hg (1018.0 mb)
Winds: calm
Visibility: 10 or more miles (16+ km)
Ceiling: at least 12,000 feet AGL
Clouds: sky clear below 12,000 feet AGL
Present Weather: automated observation with no human augmentation;
there may or may not be significant weather present at this time
KINF 222215Z AUTO 00000KT 10SM CLR 26/26 A3006 RMK AO2

Conditions at: KINF observed 22 July 2017  21:55 UTC
Temperature: 26.0°C (79°F)
Dewpoint: 26.0°C (79°F) [RH = 100%]
Pressure (altimeter): 30.06 inches Hg (1018.0 mb)
Winds: from the SE (130 degrees) at 3 MPH (3 knots; 1.6 m/s)
Visibility: 7 miles (11 km)
Ceiling: at least 12,000 feet AGL
Clouds: scattered clouds at 500 feet AGL
Present Weather: automated observation with no human augmentation;
there may or may not be significant weather present at this time
KINF 222155Z AUTO 13003KT 7SM SCT005 26/26 A3006 RMK AO2

Conditions at: KINF observed 22 July 2017  21:35 UTC
Temperature: 26.0°C (79°F)
Dewpoint: 25.0°C (77°F) [RH = 94%]
Pressure (altimeter): 30.06 inches Hg (1018.0 mb)
Winds: from the SE (140 degrees) at 5 MPH (4 knots; 2.1 m/s)
Visibility: 7 miles (11 km)
Ceiling: at least 12,000 feet AGL
Clouds: scattered clouds at 500 feet AGL
Present Weather: automated observation with no human augmentation;
there may or may not be significant weather present at this time
KINF 222135Z AUTO 14004KT 7SM SCT005 26/25 A3006 RMK AO2

Conditions at: KINF observed 22 July 2017  21:15 UTC
Temperature: 26.0°C (79°F)
Dewpoint: 25.0°C (77°F) [RH = 94%]
Pressure (altimeter): 30.06 inches Hg (1018.0 mb)
Winds: from the SSE (150 degrees) at 5 MPH (4 knots; 2.1 m/s)
Visibility: 10 or more miles (16+ km)
Ceiling: at least 12,000 feet AGL
Clouds: sky clear below 12,000 feet AGL
Present Weather: automated observation with no human augmentation;
there may or may not be significant weather present at this time
KINF 222115Z AUTO 15004KT 10SM CLR 26/25 A3006 RMK AO2

Conditions at: KINF observed 22 July 2017  20:55 UTC
Temperature: 26.0°C (79°F)
Dewpoint: 26.0°C (79°F) [RH = 100%]
Pressure (altimeter): 30.05 inches Hg (1017.7 mb)
Winds: from the SE (140 degrees) at 3 MPH (3 knots; 1.6 m/s)
Visibility: 10 or more miles (16+ km)
Ceiling: at least 12,000 feet AGL
Clouds: sky clear below 12,000 feet AGL
Present Weather: automated observation with no human augmentation;
there may or may not be significant weather present at this time
KINF 222055Z AUTO 14003KT 10SM CLR 26/26 A3005 RMK AO2 LTG DSNT NE AND SW

Conditions at: KINF observed 22 July 2017  20:35 UTC
Temperature: 27.0°C (81°F)
Dewpoint: 26.0°C (79°F) [RH = 94%]
Pressure (altimeter): 30.06 inches Hg (1018.0 mb)
Winds: from the SE (140 degrees) at 3 MPH (3 knots; 1.6 m/s)
Visibility: 10 or more miles (16+ km)
Ceiling: at least 12,000 feet AGL
Clouds: sky clear below 12,000 feet AGL
Present Weather: automated observation with no human augmentation;
there may or may not be significant weather present at this time
KINF 222035Z AUTO 14003KT 10SM CLR 27/26 A3006 RMK AO2 LTG DSNT NE AND SW

Conditions at: KINF observed 22 July 2017  20:15 UTC
Temperature: 28.0°C (82°F)
Dewpoint: 25.0°C (77°F) [RH = 84%]
Pressure (altimeter): 30.06 inches Hg (1018.0 mb)
Winds: from the S (180 degrees) at 3 MPH (3 knots; 1.6 m/s)
Visibility: 10 or more miles (16+ km)
Ceiling: at least 12,000 feet AGL
Clouds: scattered clouds at 3300 feet AGL
scattered clouds at 4300 feet AGL
Present Weather: automated observation with no human augmentation;
there may or may not be significant weather present at this time
KINF 222015Z AUTO 18003KT 10SM SCT033 SCT043 28/25 A3006 RMK AO2 LTG DSNT NE

Conditions at: KINF observed 22 July 2017  19:55 UTC
Temperature: 27.0°C (81°F)
Dewpoint: 25.0°C (77°F) [RH = 89%]
Pressure (altimeter): 30.06 inches Hg (1018.0 mb)
Winds: calm
Visibility: 10 or more miles (16+ km)
Ceiling: at least 12,000 feet AGL
Clouds: scattered clouds at 3200 feet AGL
scattered clouds at 4000 feet AGL
Present Weather: automated observation with no human augmentation;
there may or may not be significant weather present at this time
KINF 221955Z AUTO 00000KT 10SM SCT032 SCT040 27/25 A3006 RMK AO2 LTG DSNT NE

Conditions at: KINF observed 22 July 2017  19:35 UTC
Temperature: 27.0°C (81°F)
Dewpoint: 25.0°C (77°F) [RH = 89%]
Pressure (altimeter): 30.07 inches Hg (1018.4 mb)
Winds: calm
Visibility: 10 or more miles (16+ km)
Ceiling: at least 12,000 feet AGL
Clouds: sky clear below 12,000 feet AGL
Present Weather: automated observation with no human augmentation;
there may or may not be significant weather present at this time
KINF 221935Z AUTO 00000KT 10SM CLR 27/25 A3007 RMK AO2 LTG DSNT NE AND E

Conditions at: KINF observed 22 July 2017  19:15 UTC
Temperature: 27.0°C (81°F)
Dewpoint: 25.0°C (77°F) [RH = 89%]
Pressure (altimeter): 30.07 inches Hg (1018.4 mb)
Winds: from the SE (140 degrees) at 3 MPH (3 knots; 1.6 m/s)
Visibility: 7 miles (11 km)
Ceiling: at least 12,000 feet AGL
Clouds: sky clear below 12,000 feet AGL
Present Weather: automated observation with no human augmentation;
there may or may not be significant weather present at this time
KINF 221915Z AUTO 14003KT 7SM CLR 27/25 A3007 RMK AO2 LTG DSNT N NE AND S

Conditions at: KINF observed 22 July 2017  18:55 UTC
Temperature: 26.0°C (79°F)
Dewpoint: 25.0°C (77°F) [RH = 94%]
Pressure (altimeter): 30.07 inches Hg (1018.4 mb)
Winds: from the S (170 degrees) at 5 MPH (4 knots; 2.1 m/s)
Visibility: 10 or more miles (16+ km)
Ceiling: at least 12,000 feet AGL
Clouds: scattered clouds at 500 feet AGL
scattered clouds at 900 feet AGL
scattered clouds at 5500 feet AGL
Present Weather: -RA  (light rain)
KINF 221855Z AUTO 17004KT 10SM -RA SCT005 SCT009 SCT055 26/25 A3007 RMK AO2 LTG DSNT ALQS

Conditions at: KINF observed 22 July 2017  18:35 UTC
Temperature: 26.0°C (79°F)
Dewpoint: 26.0°C (79°F) [RH = 100%]
Pressure (altimeter): 30.09 inches Hg (1019.0 mb)
Winds: from the SSE (150 degrees) at 5 MPH (4 knots; 2.1 m/s)
Visibility: 10 or more miles (16+ km)
Ceiling: at least 12,000 feet AGL
Clouds: sky clear below 12,000 feet AGL
Present Weather: automated observation with no human augmentation;
there may or may not be significant weather present at this time
KINF 221835Z AUTO 15004KT 10SM CLR 26/26 A3009 RMK AO2 LTG DSNT ALQS

Conditions at: KINF observed 22 July 2017  18:15 UTC
Temperature: 26.0°C (79°F)
Dewpoint: 24.0°C (75°F) [RH = 89%]
Pressure (altimeter): 30.09 inches Hg (1019.0 mb)
Winds: from the SE (130 degrees) at 3 MPH (3 knots; 1.6 m/s)
Visibility: 10 or more miles (16+ km)
Ceiling: at least 12,000 feet AGL
Clouds: scattered clouds at 12000 feet AGL
Present Weather: TS  (thunderstorm)
KINF 221815Z AUTO 13003KT 10SM TS SCT120 26/24 A3009 RMK AO2 LTG DSNT ALQS

Conditions at: KINF observed 22 July 2017  17:55 UTC
Temperature: 25.0°C (77°F)
Dewpoint: 24.0°C (75°F) [RH = 94%]
Pressure (altimeter): 30.08 inches Hg (1018.7 mb)
Winds: calm
Visibility: 10 or more miles (16+ km)
Ceiling: at least 12,000 feet AGL
Clouds: sky clear below 12,000 feet AGL
Present Weather: TS  (thunderstorm)
KINF 221755Z AUTO 00000KT 10SM TS CLR 25/24 A3008 RMK AO2 LTG DSNT N THRU S P0001

Conditions at: KINF observed 22 July 2017  17:35 UTC
Temperature: 25.0°C (77°F)
Dewpoint: 23.0°C (73°F) [RH = 89%]
Pressure (altimeter): 30.09 inches Hg (1019.0 mb)
Winds: calm
Visibility: 10 or more miles (16+ km)
Ceiling: at least 12,000 feet AGL
Clouds: scattered clouds at 2900 feet AGL
scattered clouds at 3600 feet AGL
Present Weather: VCTS  (thunderstorm in vicinity)
KINF 221735Z AUTO 00000KT 10SM VCTS SCT029 SCT036 25/23 A3009 RMK AO2 LTG DSNT ALQS P0001

Conditions at: KINF observed 22 July 2017  17:15 UTC
Temperature: 25.0°C (77°F)
Dewpoint: 25.0°C (77°F) [RH = 100%]
Pressure (altimeter): 30.09 inches Hg (1019.0 mb)
Winds: from the WSW (240 degrees) at 3 MPH (3 knots; 1.6 m/s)
Visibility: 10 or more miles (16+ km)
Ceiling: 3100 feet AGL
Clouds: scattered clouds at 2000 feet AGL
broken clouds at 3100 feet AGL
overcast cloud deck at 8000 feet AGL
Present Weather: VCTS -RA  (thunderstorm in vicinity, light rain)
KINF 221715Z AUTO 24003KT 10SM -VCTSRA SCT020 BKN031 OVC080 25/25 A3009 RMK AO2 LTG DSNT ALQS P0001

Conditions at: KINF observed 22 July 2017  16:55 UTC
Temperature: 26.0°C (79°F)
Dewpoint: 24.0°C (75°F) [RH = 89%]
Pressure (altimeter): 30.11 inches Hg (1019.7 mb)
Winds: from the SSW (210 degrees) at 8 MPH (7 knots; 3.6 m/s)
gusting to 17 MPH (15 knots; 7.8 m/s)
Visibility: 3 miles (5 km)
Ceiling: 2900 feet AGL
Clouds: scattered clouds at 2000 feet AGL
broken clouds at 2900 feet AGL
overcast cloud deck at 9500 feet AGL
Present Weather: +TSRA  (heavy rain associated with thunderstorm(s))
KINF 221655Z AUTO 21007G15KT 3SM +TSRA SCT020 BKN029 OVC095 26/24 A3011 RMK AO2 LTG DSNT ALQS P0007

Conditions at: KINF observed 22 July 2017  16:35 UTC
Temperature: 28.0°C (82°F)
Dewpoint: 25.0°C (77°F) [RH = 84%]
Pressure (altimeter): 30.10 inches Hg (1019.4 mb)
Winds: from the SSW (200 degrees) at 3 MPH (3 knots; 1.6 m/s)
Visibility: 7 miles (11 km)
Ceiling: 7000 feet AGL
Clouds: scattered clouds at 5000 feet AGL
scattered clouds at 5500 feet AGL
broken clouds at 7000 feet AGL
Present Weather: TS  (thunderstorm)
KINF 221635Z AUTO 20003KT 7SM TS SCT050 SCT055 BKN070 28/25 A3010 RMK AO2 LTG DSNT ALQS

Conditions at: KINF observed 22 July 2017  16:15 UTC
Temperature: 28.0°C (82°F)
Dewpoint: 25.0°C (77°F) [RH = 84%]
Pressure (altimeter): 30.09 inches Hg (1019.0 mb)
Winds: from the SW (230 degrees) at 3 MPH (3 knots; 1.6 m/s)
Visibility: 7 miles (11 km)
Ceiling: at least 12,000 feet AGL
Clouds: sky clear below 12,000 feet AGL
Present Weather: TS  (thunderstorm)
KINF 221615Z AUTO 23003KT 7SM TS CLR 28/25 A3009 RMK AO2 LTG DSNT ALQS

Conditions at: KINF observed 22 July 2017  15:55 UTC
Temperature: 28.0°C (82°F)
Dewpoint: 25.0°C (77°F) [RH = 84%]
Pressure (altimeter): 30.10 inches Hg (1019.4 mb)
Winds: from the W (260 degrees) at 3 MPH (3 knots; 1.6 m/s)
Visibility: 7 miles (11 km)
Ceiling: at least 12,000 feet AGL
Clouds: sky clear below 12,000 feet AGL
Present Weather: TS  (thunderstorm)
KINF 221555Z AUTO 26003KT 7SM TS CLR 28/25 A3010 RMK AO2 LTG DSNT E THRU W

Conditions at: KINF observed 22 July 2017  15:35 UTC
Temperature: 28.0°C (82°F)
Dewpoint: 25.0°C (77°F) [RH = 84%]
Pressure (altimeter): 30.10 inches Hg (1019.4 mb)
Winds: from the W (260 degrees) at 3 MPH (3 knots; 1.6 m/s)
Visibility: 7 miles (11 km)
Ceiling: at least 12,000 feet AGL
Clouds: scattered clouds at 7500 feet AGL
Present Weather: VCTS  (thunderstorm in vicinity)
KINF 221535Z AUTO 26003KT 7SM VCTS SCT075 28/25 A3010 RMK AO2 LTG DSNT S THRU W

Conditions at: KINF observed 22 July 2017  15:15 UTC
Temperature: 30.0°C (86°F)
Dewpoint: 26.0°C (79°F) [RH = 79%]
Pressure (altimeter): 30.09 inches Hg (1019.0 mb)
Winds: from the WNW (290 degrees) at 6 MPH (5 knots; 2.6 m/s)
Visibility: 10 or more miles (16+ km)
Ceiling: at least 12,000 feet AGL
Clouds: sky clear below 12,000 feet AGL
Present Weather: VCTS  (thunderstorm in vicinity)
KINF 221515Z AUTO 29005KT 10SM VCTS CLR 30/26 A3009 RMK AO2 LTG DSNT S THRU W

Conditions at: KINF observed 22 July 2017  14:55 UTC
Temperature: 28.0°C (82°F)
Dewpoint: 26.0°C (79°F) [RH = 89%]
Pressure (altimeter): 30.09 inches Hg (1019.0 mb)
Winds: from the W (260 degrees) at 3 MPH (3 knots; 1.6 m/s)
Visibility: 5 miles (8 km)
Ceiling: at least 12,000 feet AGL
Clouds: scattered clouds at 2700 feet AGL
scattered clouds at 6500 feet AGL
scattered clouds at 7500 feet AGL
Present Weather: TSHZ  ( could not decipher "TSHZ")
KINF 221455Z AUTO 26003KT 5SM TSHZ SCT027 SCT065 SCT075 28/26 A3009 RMK AO2 LTG DSNT S THRU N

Conditions at: KINF observed 22 July 2017  14:35 UTC
Temperature: 28.0°C (82°F)
Dewpoint: 26.0°C (79°F) [RH = 89%]
Pressure (altimeter): 30.09 inches Hg (1019.0 mb)
Winds: from the WSW (240 degrees) at 3 MPH (3 knots; 1.6 m/s)
Visibility: 7 miles (11 km)
Ceiling: 2500 feet AGL
Clouds: scattered clouds at 2100 feet AGL
broken clouds at 2500 feet AGL
broken clouds at 4500 feet AGL
Present Weather: -TSRA  (light rain associated with thunderstorm(s))
KINF 221435Z AUTO 24003KT 7SM -TSRA SCT021 BKN025 BKN045 28/26 A3009 RMK AO2 LTG DSNT ALQS

Conditions at: KINF observed 22 July 2017  14:15 UTC
Temperature: 30.0°C (86°F)
Dewpoint: 26.0°C (79°F) [RH = 79%]
Pressure (altimeter): 30.09 inches Hg (1019.0 mb)
Winds: from the S (180 degrees) at 6 MPH (5 knots; 2.6 m/s)
Visibility: 7 miles (11 km)
Ceiling: at least 12,000 feet AGL
Clouds: scattered clouds at 1900 feet AGL
Present Weather: automated observation with no human augmentation;
there may or may not be significant weather present at this time
KINF 221415Z AUTO 18005KT 7SM SCT019 30/26 A3009 RMK AO2 LTG DSNT S THRU W

Conditions at: KINF observed 22 July 2017  13:55 UTC
Temperature: 29.0°C (84°F)
Dewpoint: 26.0°C (79°F) [RH = 84%]
Pressure (altimeter): 30.10 inches Hg (1019.4 mb)
Winds: from the S (180 degrees) at 7 MPH (6 knots; 3.1 m/s)
Visibility: 7 miles (11 km)
Ceiling: at least 12,000 feet AGL
Clouds: sky clear below 12,000 feet AGL
Present Weather: VCTS  (thunderstorm in vicinity)
KINF 221355Z AUTO 18006KT 7SM VCTS CLR 29/26 A3010 RMK AO2 LTG DSNT SW AND W

Conditions at: KINF observed 22 July 2017  13:35 UTC
Temperature: 28.0°C (82°F)
Dewpoint: 26.0°C (79°F) [RH = 89%]
Pressure (altimeter): 30.09 inches Hg (1019.0 mb)
Winds: from the SSE (150 degrees) at 5 MPH (4 knots; 2.1 m/s)
Visibility: 5 miles (8 km)
Ceiling: at least 12,000 feet AGL
Clouds: sky clear below 12,000 feet AGL
Present Weather: HZ  (haze)
KINF 221335Z AUTO 15004KT 5SM HZ CLR 28/26 A3009 RMK AO2 LTG DSNT S THRU W

Conditions at: KINF observed 22 July 2017  13:15 UTC
Temperature: 28.0°C (82°F)
Dewpoint: 26.0°C (79°F) [RH = 89%]
Pressure (altimeter): 30.10 inches Hg (1019.4 mb)
Winds: from the SSE (160 degrees) at 3 MPH (3 knots; 1.6 m/s)
Visibility: 7 miles (11 km)
Ceiling: at least 12,000 feet AGL
Clouds: sky clear below 12,000 feet AGL
Present Weather: automated observation with no human augmentation;
there may or may not be significant weather present at this time
KINF 221315Z AUTO 16003KT 7SM CLR 28/26 A3010 RMK AO2 LTG DSNT S THRU W

Conditions at: KINF observed 22 July 2017  12:55 UTC
Temperature: 26.0°C (79°F)
Dewpoint: 25.0°C (77°F) [RH = 94%]
Pressure (altimeter): 30.10 inches Hg (1019.4 mb)
Winds: from the S (190 degrees) at 3 MPH (3 knots; 1.6 m/s)
Visibility: 7 miles (11 km)
Ceiling: at least 12,000 feet AGL
Clouds: sky clear below 12,000 feet AGL
Present Weather: VCTS  (thunderstorm in vicinity)
KINF 221255Z AUTO 19003KT 7SM VCTS CLR 26/25 A3010 RMK AO2 LTG DSNT S THRU W

Conditions at: KINF observed 22 July 2017  12:35 UTC
Temperature: 26.0°C (79°F)
Dewpoint: 25.0°C (77°F) [RH = 94%]
Pressure (altimeter): 30.09 inches Hg (1019.0 mb)
Winds: from the S (180 degrees) at 5 MPH (4 knots; 2.1 m/s)
Visibility: 7 miles (11 km)
Ceiling: at least 12,000 feet AGL
Clouds: sky clear below 12,000 feet AGL
Present Weather: automated observation with no human augmentation;
there may or may not be significant weather present at this time
KINF 221235Z AUTO 18004KT 7SM CLR 26/25 A3009 RMK AO2 LTG DSNT SW THRU NW

Conditions at: KINF observed 22 July 2017  12:15 UTC
Temperature: 25.0°C (77°F)
Dewpoint: 25.0°C (77°F) [RH = 100%]
Pressure (altimeter): 30.08 inches Hg (1018.7 mb)
Winds: from the SSE (160 degrees) at 3 MPH (3 knots; 1.6 m/s)
Visibility: 5 miles (8 km)
Ceiling: at least 12,000 feet AGL
Clouds: sky clear below 12,000 feet AGL
Present Weather: VCTS BR  (thunderstorm in vicinity, mist)
KINF 221215Z AUTO 16003KT 5SM VCTS BR CLR 25/25 A3008 RMK AO2 LTG DSNT S THRU W

Conditions at: KINF observed 22 July 2017  11:55 UTC
Temperature: 23.0°C (73°F)
Dewpoint: 23.0°C (73°F) [RH = 100%]
Pressure (altimeter): 30.08 inches Hg (1018.7 mb)
Winds: calm
Visibility: 5 miles (8 km)
Ceiling: at least 12,000 feet AGL
Clouds: sky clear below 12,000 feet AGL
Present Weather: BR  (mist)
KINF 221155Z AUTO 00000KT 5SM BR CLR 23/23 A3008 RMK AO2 LTG DSNT S THRU W

Conditions at: KINF observed 22 July 2017  11:35 UTC
Temperature: 23.0°C (73°F)
Dewpoint: 23.0°C (73°F) [RH = 100%]
Pressure (altimeter): 30.07 inches Hg (1018.4 mb)
Winds: calm
Visibility: 7 miles (11 km)
Ceiling: at least 12,000 feet AGL
Clouds: sky clear below 12,000 feet AGL
Present Weather: automated observation with no human augmentation;
there may or may not be significant weather present at this time
KINF 221135Z AUTO 00000KT 7SM CLR 23/23 A3007 RMK AO2 LTG DSNT SW AND W

Conditions at: KINF observed 22 July 2017  11:15 UTC
Temperature: 22.0°C (72°F)
Dewpoint: 22.0°C (72°F) [RH = 100%]
Pressure (altimeter): 30.07 inches Hg (1018.4 mb)
Winds: calm
Visibility: 4 miles (6 km)
Ceiling: at least 12,000 feet AGL
Clouds: sky clear below 12,000 feet AGL
Present Weather: VCTS BR  (thunderstorm in vicinity, mist)
KINF 221115Z AUTO 00000KT 4SM VCTS BR CLR 22/22 A3007 RMK AO2 LTG DSNT SW AND W

Conditions at: KINF observed 22 July 2017  10:55 UTC
Temperature: 22.0°C (72°F)
Dewpoint: 22.0°C (72°F) [RH = 100%]
Pressure (altimeter): 30.06 inches Hg (1018.0 mb)
Winds: calm
Visibility: 5 miles (8 km)
Ceiling: at least 12,000 feet AGL
Clouds: sky clear below 12,000 feet AGL
Present Weather: VCTS BR  (thunderstorm in vicinity, mist)
KINF 221055Z AUTO 00000KT 5SM VCTS BR CLR 22/22 A3006 RMK AO2 LTG DSNT SW AND W

Conditions at: KINF observed 22 July 2017  10:35 UTC
Temperature: 22.0°C (72°F)
Dewpoint: 22.0°C (72°F) [RH = 100%]
Pressure (altimeter): 30.05 inches Hg (1017.7 mb)
Winds: calm
Visibility: 7 miles (11 km)
Ceiling: at least 12,000 feet AGL
Clouds: sky clear below 12,000 feet AGL
Present Weather: VCTS  (thunderstorm in vicinity)
KINF 221035Z AUTO 00000KT 7SM VCTS CLR 22/22 A3005 RMK AO2 LTG DSNT SW AND W

Conditions at: KINF observed 22 July 2017  10:15 UTC
Temperature: 22.0°C (72°F)
Dewpoint: 22.0°C (72°F) [RH = 100%]
Pressure (altimeter): 30.04 inches Hg (1017.4 mb)
Winds: calm
Visibility: 7 miles (11 km)
Ceiling: at least 12,000 feet AGL
Clouds: sky clear below 12,000 feet AGL
Present Weather: automated observation with no human augmentation;
there may or may not be significant weather present at this time
KINF 221015Z AUTO 00000KT 7SM CLR 22/22 A3004 RMK AO2 LTG DSNT SW AND W

Conditions at: KINF observed 22 July 2017  09:55 UTC
Temperature: 22.0°C (72°F)
Dewpoint: 22.0°C (72°F) [RH = 100%]
Pressure (altimeter): 30.04 inches Hg (1017.4 mb)
Winds: calm
Visibility: 7 miles (11 km)
Ceiling: at least 12,000 feet AGL
Clouds: sky clear below 12,000 feet AGL
Present Weather: automated observation with no human augmentation;
there may or may not be significant weather present at this time
KINF 220955Z AUTO 00000KT 7SM CLR 22/22 A3004 RMK AO2 LTG DSNT S THRU W

Conditions at: KINF observed 22 July 2017  09:35 UTC
Temperature: 22.0°C (72°F)
Dewpoint: 22.0°C (72°F) [RH = 100%]
Pressure (altimeter): 30.03 inches Hg (1017.0 mb)
Winds: calm
Visibility: 5 miles (8 km)
Ceiling: at least 12,000 feet AGL
Clouds: sky clear below 12,000 feet AGL
Present Weather: BR  (mist)
KINF 220935Z AUTO 00000KT 5SM BR CLR 22/22 A3003 RMK AO2 LTG DSNT SW

Conditions at: KINF observed 22 July 2017  09:15 UTC
Temperature: 22.0°C (72°F)
Dewpoint: 22.0°C (72°F) [RH = 100%]
Pressure (altimeter): 30.03 inches Hg (1017.0 mb)
Winds: calm
Visibility: 7 miles (11 km)
Ceiling: at least 12,000 feet AGL
Clouds: sky clear below 12,000 feet AGL
Present Weather: automated observation with no human augmentation;
there may or may not be significant weather present at this time
KINF 220915Z AUTO 00000KT 7SM CLR 22/22 A3003 RMK AO2 LTG DSNT SW

Conditions at: KINF observed 22 July 2017  08:55 UTC
Temperature: 22.0°C (72°F)
Dewpoint: 22.0°C (72°F) [RH = 100%]
Pressure (altimeter): 30.03 inches Hg (1017.0 mb)
Winds: calm
Visibility: 7 miles (11 km)
Ceiling: at least 12,000 feet AGL
Clouds: sky clear below 12,000 feet AGL
Present Weather: automated observation with no human augmentation;
there may or may not be significant weather present at this time
KINF 220855Z AUTO 00000KT 7SM CLR 22/22 A3003 RMK AO2